sensor_id;sensor_type;location;lat;lon;timestamp;P1;durP1;ratioP1;P2;durP2;ratioP2
23410;SDS011;11878;51.774;7.220;2023-06-22T00:01:55;10.45;;;5.60;;
23410;SDS011;11878;51.774;7.220;2023-06-22T00:04:57;9.55;;;5.82;;
23410;SDS011;11878;51.774;7.220;2023-06-22T00:08:01;11.07;;;5.38;;
23410;SDS011;11878;51.774;7.220;2023-06-22T00:11:06;10.27;;;6.20;;
23410;SDS011;11878;51.774;7.220;2023-06-22T00:14:07;9.70;;;6.35;;
23410;SDS011;11878;51.774;7.220;2023-06-22T00:17:09;9.85;;;6.60;;
23410;SDS011;11878;51.774;7.220;2023-06-22T00:20:11;10.65;;;6.82;;
23410;SDS011;11878;51.774;7.220;2023-06-22T00:23:13;14.38;;;6.82;;
23410;SDS011;11878;51.774;7.220;2023-06-22T00:26:17;11.13;;;6.43;;
23410;SDS011;11878;51.774;7.220;2023-06-22T00:29:19;11.52;;;6.55;;
23410;SDS011;11878;51.774;7.220;2023-06-22T00:32:22;11.75;;;6.70;;
23410;SDS011;11878;51.774;7.220;2023-06-22T00:39:01;11.13;;;7.28;;
23410;SDS011;11878;51.774;7.220;2023-06-22T00:42:04;11.57;;;6.85;;
23410;SDS011;11878;51.774;7.220;2023-06-22T00:45:06;11.73;;;6.30;;
23410;SDS011;11878;51.774;7.220;2023-06-22T00:48:08;12.02;;;6.35;;
23410;SDS011;11878;51.774;7.220;2023-06-22T00:51:11;9.68;;;6.28;;
23410;SDS011;11878;51.774;7.220;2023-06-22T00:54:16;12.25;;;7.35;;
23410;SDS011;11878;51.774;7.220;2023-06-22T00:57:25;12.80;;;7.57;;
23410;SDS011;11878;51.774;7.220;2023-06-22T01:00:29;13.18;;;7.45;;
23410;SDS011;11878;51.774;7.220;2023-06-22T01:03:34;10.65;;;7.32;;
23410;SDS011;11878;51.774;7.220;2023-06-22T01:06:40;11.60;;;7.00;;
23410;SDS011;11878;51.774;7.220;2023-06-22T01:09:51;15.13;;;8.23;;
23410;SDS011;11878;51.774;7.220;2023-06-22T01:16:31;19.02;;;7.70;;
23410;SDS011;11878;51.774;7.220;2023-06-22T01:19:37;12.25;;;7.45;;
23410;SDS011;11878;51.774;7.220;2023-06-22T01:22:49;13.65;;;8.05;;
23410;SDS011;11878;51.774;7.220;2023-06-22T01:26:28;13.20;;;7.80;;
23410;SDS011;11878;51.774;7.220;2023-06-22T01:29:58;15.45;;;8.27;;
23410;SDS011;11878;51.774;7.220;2023-06-22T01:33:02;12.93;;;7.15;;
23410;SDS011;11878;51.774;7.220;2023-06-22T01:36:05;12.60;;;8.10;;
23410;SDS011;11878;51.774;7.220;2023-06-22T01:39:08;13.05;;;8.13;;
23410;SDS011;11878;51.774;7.220;2023-06-22T01:42:11;14.35;;;7.60;;
23410;SDS011;11878;51.774;7.220;2023-06-22T01:45:14;13.10;;;7.45;;
23410;SDS011;11878;51.774;7.220;2023-06-22T01:48:17;13.88;;;8.00;;
23410;SDS011;11878;51.774;7.220;2023-06-22T01:51:20;14.48;;;8.48;;
23410;SDS011;11878;51.774;7.220;2023-06-22T01:54:22;13.15;;;8.90;;
23410;SDS011;11878;51.774;7.220;2023-06-22T01:57:24;13.90;;;8.00;;
23410;SDS011;11878;51.774;7.220;2023-06-22T02:00:28;13.70;;;8.30;;
23410;SDS011;11878;51.774;7.220;2023-06-22T02:03:34;14.00;;;8.20;;
23410;SDS011;11878;51.774;7.220;2023-06-22T02:06:55;14.50;;;8.23;;
23410;SDS011;11878;51.774;7.220;2023-06-22T02:09:59;14.50;;;9.32;;
23410;SDS011;11878;51.774;7.220;2023-06-22T02:13:06;16.88;;;10.10;;
23410;SDS011;11878;51.774;7.220;2023-06-22T02:16:12;15.65;;;8.98;;
23410;SDS011;11878;51.774;7.220;2023-06-22T02:19:15;15.50;;;8.85;;
23410;SDS011;11878;51.774;7.220;2023-06-22T02:22:19;15.43;;;9.25;;
23410;SDS011;11878;51.774;7.220;2023-06-22T02:25:21;12.60;;;8.55;;
23410;SDS011;11878;51.774;7.220;2023-06-22T02:28:29;15.55;;;10.10;;
23410;SDS011;11878;51.774;7.220;2023-06-22T02:35:08;13.00;;;9.45;;
23410;SDS011;11878;51.774;7.220;2023-06-22T02:38:13;12.98;;;9.52;;
23410;SDS011;11878;51.774;7.220;2023-06-22T02:41:16;13.00;;;9.93;;
23410;SDS011;11878;51.774;7.220;2023-06-22T02:44:33;17.63;;;9.55;;
23410;SDS011;11878;51.774;7.220;2023-06-22T02:48:11;14.63;;;8.77;;
23410;SDS011;11878;51.774;7.220;2023-06-22T02:51:14;15.10;;;10.18;;
23410;SDS011;11878;51.774;7.220;2023-06-22T02:54:16;14.68;;;10.10;;
23410;SDS011;11878;51.774;7.220;2023-06-22T02:57:20;12.27;;;9.18;;
23410;SDS011;11878;51.774;7.220;2023-06-22T03:00:22;16.17;;;10.07;;
23410;SDS011;11878;51.774;7.220;2023-06-22T03:03:23;15.45;;;10.18;;
23410;SDS011;11878;51.774;7.220;2023-06-22T03:06:27;14.40;;;9.40;;
23410;SDS011;11878;51.774;7.220;2023-06-22T03:09:29;14.02;;;9.98;;
23410;SDS011;11878;51.774;7.220;2023-06-22T03:12:31;16.20;;;9.80;;
23410;SDS011;11878;51.774;7.220;2023-06-22T03:15:33;17.02;;;9.85;;
23410;SDS011;11878;51.774;7.220;2023-06-22T03:18:35;15.40;;;10.70;;
23410;SDS011;11878;51.774;7.220;2023-06-22T03:21:37;15.95;;;10.40;;
23410;SDS011;11878;51.774;7.220;2023-06-22T03:24:40;14.25;;;10.02;;
23410;SDS011;11878;51.774;7.220;2023-06-22T03:27:42;16.67;;;9.90;;
23410;SDS011;11878;51.774;7.220;2023-06-22T03:30:45;14.18;;;10.05;;
23410;SDS011;11878;51.774;7.220;2023-06-22T03:37:35;15.70;;;10.05;;
23410;SDS011;11878;51.774;7.220;2023-06-22T03:40:43;21.52;;;11.02;;
23410;SDS011;11878;51.774;7.220;2023-06-22T03:43:45;14.40;;;10.38;;
23410;SDS011;11878;51.774;7.220;2023-06-22T03:46:53;16.10;;;10.40;;
23410;SDS011;11878;51.774;7.220;2023-06-22T03:50:01;14.32;;;9.85;;
23410;SDS011;11878;51.774;7.220;2023-06-22T03:56:57;14.85;;;10.70;;
23410;SDS011;11878;51.774;7.220;2023-06-22T04:07:15;19.35;;;10.80;;
23410;SDS011;11878;51.774;7.220;2023-06-22T04:10:17;18.38;;;11.32;;
23410;SDS011;11878;51.774;7.220;2023-06-22T04:20:31;17.00;;;11.02;;
23410;SDS011;11878;51.774;7.220;2023-06-22T04:23:33;18.23;;;10.43;;
23410;SDS011;11878;51.774;7.220;2023-06-22T04:26:35;16.33;;;11.07;;
23410;SDS011;11878;51.774;7.220;2023-06-22T04:29:38;16.98;;;12.05;;
23410;SDS011;11878;51.774;7.220;2023-06-22T04:32:49;17.10;;;11.73;;
23410;SDS011;11878;51.774;7.220;2023-06-22T04:35:59;19.08;;;12.32;;
23410;SDS011;11878;51.774;7.220;2023-06-22T04:39:15;18.48;;;11.60;;
23410;SDS011;11878;51.774;7.220;2023-06-22T04:42:27;16.80;;;11.65;;
23410;SDS011;11878;51.774;7.220;2023-06-22T04:45:29;16.55;;;10.75;;
23410;SDS011;11878;51.774;7.220;2023-06-22T04:48:31;15.85;;;11.35;;
23410;SDS011;11878;51.774;7.220;2023-06-22T04:51:48;18.20;;;11.35;;
23410;SDS011;11878;51.774;7.220;2023-06-22T04:55:00;16.77;;;10.85;;
23410;SDS011;11878;51.774;7.220;2023-06-22T04:58:53;17.02;;;10.00;;
23410;SDS011;11878;51.774;7.220;2023-06-22T05:02:24;13.95;;;9.45;;
23410;SDS011;11878;51.774;7.220;2023-06-22T05:05:30;16.13;;;10.05;;
23410;SDS011;11878;51.774;7.220;2023-06-22T05:08:33;14.45;;;9.45;;
23410;SDS011;11878;51.774;7.220;2023-06-22T05:11:36;15.07;;;9.98;;
23410;SDS011;11878;51.774;7.220;2023-06-22T05:14:40;17.02;;;10.68;;
23410;SDS011;11878;51.774;7.220;2023-06-22T05:18:06;16.60;;;10.30;;
23410;SDS011;11878;51.774;7.220;2023-06-22T05:21:08;16.33;;;10.13;;
23410;SDS011;11878;51.774;7.220;2023-06-22T05:24:16;15.15;;;10.15;;
23410;SDS011;11878;51.774;7.220;2023-06-22T05:27:27;16.88;;;10.50;;
23410;SDS011;11878;51.774;7.220;2023-06-22T05:30:42;12.27;;;9.18;;
23410;SDS011;11878;51.774;7.220;2023-06-22T05:33:44;15.65;;;9.95;;
23410;SDS011;11878;51.774;7.220;2023-06-22T05:37:04;12.48;;;9.05;;
23410;SDS011;11878;51.774;7.220;2023-06-22T05:40:07;14.88;;;9.15;;
23410;SDS011;11878;51.774;7.220;2023-06-22T05:43:11;13.88;;;9.63;;
23410;SDS011;11878;51.774;7.220;2023-06-22T05:46:33;14.85;;;9.77;;
23410;SDS011;11878;51.774;7.220;2023-06-22T05:49:36;14.30;;;9.80;;
23410;SDS011;11878;51.774;7.220;2023-06-22T05:52:39;17.30;;;9.48;;
23410;SDS011;11878;51.774;7.220;2023-06-22T05:55:56;16.67;;;9.65;;
23410;SDS011;11878;51.774;7.220;2023-06-22T05:58:58;15.35;;;9.88;;
23410;SDS011;11878;51.774;7.220;2023-06-22T06:02:00;14.40;;;9.93;;
23410;SDS011;11878;51.774;7.220;2023-06-22T06:05:04;13.35;;;9.70;;
23410;SDS011;11878;51.774;7.220;2023-06-22T06:08:08;13.52;;;9.35;;
23410;SDS011;11878;51.774;7.220;2023-06-22T06:11:15;14.98;;;10.50;;
23410;SDS011;11878;51.774;7.220;2023-06-22T06:14:17;13.20;;;9.30;;
23410;SDS011;11878;51.774;7.220;2023-06-22T06:17:22;13.27;;;8.07;;
23410;SDS011;11878;51.774;7.220;2023-06-22T06:20:33;16.35;;;9.07;;
23410;SDS011;11878;51.774;7.220;2023-06-22T06:23:35;14.50;;;10.05;;
23410;SDS011;11878;51.774;7.220;2023-06-22T06:26:37;14.50;;;8.93;;
23410;SDS011;11878;51.774;7.220;2023-06-22T06:29:41;14.75;;;9.82;;
23410;SDS011;11878;51.774;7.220;2023-06-22T06:32:43;13.80;;;9.30;;
23410;SDS011;11878;51.774;7.220;2023-06-22T06:39:17;17.08;;;8.60;;
23410;SDS011;11878;51.774;7.220;2023-06-22T06:42:18;16.90;;;9.55;;
23410;SDS011;11878;51.774;7.220;2023-06-22T06:45:21;13.32;;;9.35;;
23410;SDS011;11878;51.774;7.220;2023-06-22T06:48:24;15.77;;;9.00;;
23410;SDS011;11878;51.774;7.220;2023-06-22T06:54:56;14.38;;;8.73;;
23410;SDS011;11878;51.774;7.220;2023-06-22T06:57:58;13.18;;;9.55;;
23410;SDS011;11878;51.774;7.220;2023-06-22T07:01:01;13.88;;;9.82;;
23410;SDS011;11878;51.774;7.220;2023-06-22T07:04:04;15.20;;;10.10;;
23410;SDS011;11878;51.774;7.220;2023-06-22T07:07:09;15.63;;;10.32;;
23410;SDS011;11878;51.774;7.220;2023-06-22T07:10:16;18.20;;;11.38;;
23410;SDS011;11878;51.774;7.220;2023-06-22T07:13:22;18.17;;;10.30;;
23410;SDS011;11878;51.774;7.220;2023-06-22T07:16:24;14.05;;;10.05;;
23410;SDS011;11878;51.774;7.220;2023-06-22T07:19:28;16.90;;;10.25;;
23410;SDS011;11878;51.774;7.220;2023-06-22T07:22:33;14.38;;;10.32;;
23410;SDS011;11878;51.774;7.220;2023-06-22T07:25:36;16.10;;;10.45;;
23410;SDS011;11878;51.774;7.220;2023-06-22T07:28:39;15.98;;;10.20;;
23410;SDS011;11878;51.774;7.220;2023-06-22T07:31:44;15.50;;;9.98;;
23410;SDS011;11878;51.774;7.220;2023-06-22T07:34:47;15.65;;;11.05;;
23410;SDS011;11878;51.774;7.220;2023-06-22T07:37:52;14.05;;;9.75;;
23410;SDS011;11878;51.774;7.220;2023-06-22T07:40:58;16.10;;;10.18;;
23410;SDS011;11878;51.774;7.220;2023-06-22T07:44:23;15.00;;;10.45;;
23410;SDS011;11878;51.774;7.220;2023-06-22T07:47:25;13.90;;;10.65;;
23410;SDS011;11878;51.774;7.220;2023-06-22T07:50:29;14.70;;;11.23;;
23410;SDS011;11878;51.774;7.220;2023-06-22T07:53:36;15.05;;;10.65;;
23410;SDS011;11878;51.774;7.220;2023-06-22T07:56:38;16.52;;;11.57;;
23410;SDS011;11878;51.774;7.220;2023-06-22T07:59:40;23.27;;;11.43;;
23410;SDS011;11878;51.774;7.220;2023-06-22T08:02:42;16.73;;;10.93;;
23410;SDS011;11878;51.774;7.220;2023-06-22T08:05:48;15.98;;;10.82;;
23410;SDS011;11878;51.774;7.220;2023-06-22T08:08:56;15.00;;;10.23;;
23410;SDS011;11878;51.774;7.220;2023-06-22T08:23:03;18.10;;;12.10;;
23410;SDS011;11878;51.774;7.220;2023-06-22T08:26:19;21.50;;;12.20;;
23410;SDS011;11878;51.774;7.220;2023-06-22T08:29:21;16.33;;;10.90;;
23410;SDS011;11878;51.774;7.220;2023-06-22T08:32:23;16.80;;;11.38;;
23410;SDS011;11878;51.774;7.220;2023-06-22T08:39:18;21.33;;;11.70;;
23410;SDS011;11878;51.774;7.220;2023-06-22T08:42:23;15.85;;;10.95;;
23410;SDS011;11878;51.774;7.220;2023-06-22T08:45:26;17.55;;;11.50;;
23410;SDS011;11878;51.774;7.220;2023-06-22T08:48:31;16.77;;;11.30;;
23410;SDS011;11878;51.774;7.220;2023-06-22T08:51:39;16.20;;;11.52;;
23410;SDS011;11878;51.774;7.220;2023-06-22T08:54:43;16.33;;;11.25;;
23410;SDS011;11878;51.774;7.220;2023-06-22T08:57:45;15.35;;;11.35;;
23410;SDS011;11878;51.774;7.220;2023-06-22T09:00:49;16.83;;;11.75;;
23410;SDS011;11878;51.774;7.220;2023-06-22T09:03:53;18.88;;;11.77;;
23410;SDS011;11878;51.774;7.220;2023-06-22T09:07:01;17.38;;;11.80;;
23410;SDS011;11878;51.774;7.220;2023-06-22T09:10:11;17.13;;;11.85;;
23410;SDS011;11878;51.774;7.220;2023-06-22T09:13:29;18.13;;;11.70;;
23410;SDS011;11878;51.774;7.220;2023-06-22T09:16:32;16.75;;;12.30;;
23410;SDS011;11878;51.774;7.220;2023-06-22T09:19:35;14.95;;;11.32;;
23410;SDS011;11878;51.774;7.220;2023-06-22T09:22:44;17.35;;;12.07;;
23410;SDS011;11878;51.774;7.220;2023-06-22T09:25:51;16.00;;;10.85;;
23410;SDS011;11878;51.774;7.220;2023-06-22T09:28:53;15.40;;;10.95;;
23410;SDS011;11878;51.774;7.220;2023-06-22T09:31:55;19.20;;;11.43;;
23410;SDS011;11878;51.774;7.220;2023-06-22T09:34:57;15.98;;;11.00;;
23410;SDS011;11878;51.774;7.220;2023-06-22T09:38:02;13.05;;;9.93;;
23410;SDS011;11878;51.774;7.220;2023-06-22T09:41:04;18.25;;;11.82;;
23410;SDS011;11878;51.774;7.220;2023-06-22T09:44:06;17.00;;;11.07;;
23410;SDS011;11878;51.774;7.220;2023-06-22T09:47:08;15.45;;;10.38;;
23410;SDS011;11878;51.774;7.220;2023-06-22T09:50:13;14.65;;;10.18;;
23410;SDS011;11878;51.774;7.220;2023-06-22T09:53:18;13.63;;;10.07;;
23410;SDS011;11878;51.774;7.220;2023-06-22T09:56:24;13.95;;;10.05;;
23410;SDS011;11878;51.774;7.220;2023-06-22T09:59:32;13.00;;;9.13;;
23410;SDS011;11878;51.774;7.220;2023-06-22T10:02:34;11.30;;;9.27;;
23410;SDS011;11878;51.774;7.220;2023-06-22T10:05:36;15.02;;;10.15;;
23410;SDS011;11878;51.774;7.220;2023-06-22T10:08:38;14.65;;;10.20;;
23410;SDS011;11878;51.774;7.220;2023-06-22T10:11:42;14.63;;;10.55;;
23410;SDS011;11878;51.774;7.220;2023-06-22T10:14:47;16.05;;;10.60;;
23410;SDS011;11878;51.774;7.220;2023-06-22T10:22:43;13.20;;;10.05;;
23410;SDS011;11878;51.774;7.220;2023-06-22T10:25:46;17.23;;;10.52;;
23410;SDS011;11878;51.774;7.220;2023-06-22T10:28:57;19.70;;;10.57;;
23410;SDS011;11878;51.774;7.220;2023-06-22T10:32:08;15.68;;;9.35;;
23410;SDS011;11878;51.774;7.220;2023-06-22T10:35:11;18.67;;;10.20;;
23410;SDS011;11878;51.774;7.220;2023-06-22T10:38:15;17.98;;;10.40;;
23410;SDS011;11878;51.774;7.220;2023-06-22T10:41:17;15.13;;;8.88;;
23410;SDS011;11878;51.774;7.220;2023-06-22T10:44:19;14.07;;;9.77;;
23410;SDS011;11878;51.774;7.220;2023-06-22T10:47:22;14.05;;;10.13;;
23410;SDS011;11878;51.774;7.220;2023-06-22T10:50:26;13.07;;;9.80;;
23410;SDS011;11878;51.774;7.220;2023-06-22T10:53:28;14.93;;;9.18;;
23410;SDS011;11878;51.774;7.220;2023-06-22T10:56:30;13.80;;;9.18;;
23410;SDS011;11878;51.774;7.220;2023-06-22T10:59:32;14.85;;;9.70;;
23410;SDS011;11878;51.774;7.220;2023-06-22T11:02:39;12.05;;;9.45;;
23410;SDS011;11878;51.774;7.220;2023-06-22T11:05:48;13.77;;;8.75;;
23410;SDS011;11878;51.774;7.220;2023-06-22T11:08:53;13.15;;;8.07;;
23410;SDS011;11878;51.774;7.220;2023-06-22T11:12:12;11.27;;;7.93;;
23410;SDS011;11878;51.774;7.220;2023-06-22T11:15:17;10.15;;;7.70;;
23410;SDS011;11878;51.774;7.220;2023-06-22T11:18:22;11.77;;;9.05;;
23410;SDS011;11878;51.774;7.220;2023-06-22T11:21:25;11.18;;;8.02;;
23410;SDS011;11878;51.774;7.220;2023-06-22T11:24:27;12.38;;;8.25;;
23410;SDS011;11878;51.774;7.220;2023-06-22T11:27:32;13.93;;;8.98;;
23410;SDS011;11878;51.774;7.220;2023-06-22T11:30:34;12.75;;;9.65;;
23410;SDS011;11878;51.774;7.220;2023-06-22T11:33:36;11.45;;;8.32;;
23410;SDS011;11878;51.774;7.220;2023-06-22T11:36:44;12.93;;;9.25;;
23410;SDS011;11878;51.774;7.220;2023-06-22T11:39:49;14.23;;;9.15;;
23410;SDS011;11878;51.774;7.220;2023-06-22T11:43:06;16.15;;;10.70;;
23410;SDS011;11878;51.774;7.220;2023-06-22T11:46:22;14.30;;;9.52;;
23410;SDS011;11878;51.774;7.220;2023-06-22T11:49:28;12.82;;;9.68;;
23410;SDS011;11878;51.774;7.220;2023-06-22T11:52:36;12.85;;;9.88;;
23410;SDS011;11878;51.774;7.220;2023-06-22T11:55:39;14.27;;;10.93;;
23410;SDS011;11878;51.774;7.220;2023-06-22T11:58:45;14.25;;;10.65;;
23410;SDS011;11878;51.774;7.220;2023-06-22T12:01:47;14.25;;;10.57;;
23410;SDS011;11878;51.774;7.220;2023-06-22T12:04:53;14.43;;;10.32;;
23410;SDS011;11878;51.774;7.220;2023-06-22T12:07:57;16.08;;;10.68;;
23410;SDS011;11878;51.774;7.220;2023-06-22T12:11:08;14.65;;;10.23;;
23410;SDS011;11878;51.774;7.220;2023-06-22T12:14:11;16.92;;;11.25;;
23410;SDS011;11878;51.774;7.220;2023-06-22T12:17:17;15.38;;;10.45;;
23410;SDS011;11878;51.774;7.220;2023-06-22T12:20:19;16.15;;;12.10;;
23410;SDS011;11878;51.774;7.220;2023-06-22T12:23:29;15.70;;;12.35;;
23410;SDS011;11878;51.774;7.220;2023-06-22T12:30:16;21.73;;;13.30;;
23410;SDS011;11878;51.774;7.220;2023-06-22T12:33:18;17.17;;;12.75;;
23410;SDS011;11878;51.774;7.220;2023-06-22T12:36:20;21.83;;;13.32;;
23410;SDS011;11878;51.774;7.220;2023-06-22T12:39:22;22.35;;;14.07;;
23410;SDS011;11878;51.774;7.220;2023-06-22T12:42:24;19.52;;;14.13;;
23410;SDS011;11878;51.774;7.220;2023-06-22T12:45:27;20.40;;;14.68;;
23410;SDS011;11878;51.774;7.220;2023-06-22T12:48:33;25.02;;;15.73;;
23410;SDS011;11878;51.774;7.220;2023-06-22T12:51:43;22.80;;;14.82;;
23410;SDS011;11878;51.774;7.220;2023-06-22T12:54:51;22.15;;;14.80;;
23410;SDS011;11878;51.774;7.220;2023-06-22T12:57:56;21.38;;;15.07;;
23410;SDS011;11878;51.774;7.220;2023-06-22T13:01:01;22.95;;;16.15;;
23410;SDS011;11878;51.774;7.220;2023-06-22T13:04:05;22.35;;;16.48;;
23410;SDS011;11878;51.774;7.220;2023-06-22T13:07:08;22.80;;;16.55;;
23410;SDS011;11878;51.774;7.220;2023-06-22T13:10:23;27.73;;;18.55;;
23410;SDS011;11878;51.774;7.220;2023-06-22T13:13:25;25.77;;;16.67;;
23410;SDS011;11878;51.774;7.220;2023-06-22T13:16:29;22.80;;;17.00;;
23410;SDS011;11878;51.774;7.220;2023-06-22T13:19:31;24.00;;;17.40;;
23410;SDS011;11878;51.774;7.220;2023-06-22T13:22:39;20.35;;;15.70;;
23410;SDS011;11878;51.774;7.220;2023-06-22T13:25:43;23.17;;;16.25;;
23410;SDS011;11878;51.774;7.220;2023-06-22T13:28:57;21.88;;;16.35;;
23410;SDS011;11878;51.774;7.220;2023-06-22T13:32:10;21.95;;;15.73;;
23410;SDS011;11878;51.774;7.220;2023-06-22T13:35:12;22.48;;;16.88;;
23410;SDS011;11878;51.774;7.220;2023-06-22T13:38:16;24.13;;;16.40;;
23410;SDS011;11878;51.774;7.220;2023-06-22T13:41:22;22.90;;;16.30;;
23410;SDS011;11878;51.774;7.220;2023-06-22T13:44:31;25.90;;;15.73;;
23410;SDS011;11878;51.774;7.220;2023-06-22T13:47:33;22.15;;;15.32;;
23410;SDS011;11878;51.774;7.220;2023-06-22T13:50:38;25.38;;;17.15;;
23410;SDS011;11878;51.774;7.220;2023-06-22T13:53:43;22.45;;;17.20;;
23410;SDS011;11878;51.774;7.220;2023-06-22T13:56:49;23.60;;;16.77;;
23410;SDS011;11878;51.774;7.220;2023-06-22T13:59:52;22.75;;;15.80;;
23410;SDS011;11878;51.774;7.220;2023-06-22T14:02:56;25.35;;;17.15;;
23410;SDS011;11878;51.774;7.220;2023-06-22T14:05:58;21.35;;;15.57;;
23410;SDS011;11878;51.774;7.220;2023-06-22T14:09:00;24.50;;;17.08;;
23410;SDS011;11878;51.774;7.220;2023-06-22T14:12:05;23.65;;;16.80;;
23410;SDS011;11878;51.774;7.220;2023-06-22T14:15:09;22.70;;;17.40;;
23410;SDS011;11878;51.774;7.220;2023-06-22T14:18:11;23.73;;;16.98;;
23410;SDS011;11878;51.774;7.220;2023-06-22T14:21:14;22.67;;;18.17;;
23410;SDS011;11878;51.774;7.220;2023-06-22T14:24:17;19.58;;;16.50;;
23410;SDS011;11878;51.774;7.220;2023-06-22T14:27:19;24.67;;;18.60;;
23410;SDS011;11878;51.774;7.220;2023-06-22T14:30:24;27.27;;;18.20;;
23410;SDS011;11878;51.774;7.220;2023-06-22T14:33:25;23.08;;;16.45;;
23410;SDS011;11878;51.774;7.220;2023-06-22T14:36:29;24.05;;;16.70;;
23410;SDS011;11878;51.774;7.220;2023-06-22T14:39:37;26.15;;;18.25;;
23410;SDS011;11878;51.774;7.220;2023-06-22T14:42:40;23.55;;;17.35;;
23410;SDS011;11878;51.774;7.220;2023-06-22T14:45:42;24.92;;;17.83;;
23410;SDS011;11878;51.774;7.220;2023-06-22T14:48:47;25.42;;;17.67;;
23410;SDS011;11878;51.774;7.220;2023-06-22T14:51:50;24.90;;;17.65;;
23410;SDS011;11878;51.774;7.220;2023-06-22T14:54:52;24.02;;;17.17;;
23410;SDS011;11878;51.774;7.220;2023-06-22T14:57:54;26.05;;;17.23;;
23410;SDS011;11878;51.774;7.220;2023-06-22T15:00:56;24.73;;;17.92;;
23410;SDS011;11878;51.774;7.220;2023-06-22T15:03:58;25.50;;;17.17;;
23410;SDS011;11878;51.774;7.220;2023-06-22T15:07:00;24.80;;;17.35;;
23410;SDS011;11878;51.774;7.220;2023-06-22T15:10:02;22.15;;;16.35;;
23410;SDS011;11878;51.774;7.220;2023-06-22T15:13:05;21.38;;;16.55;;
23410;SDS011;11878;51.774;7.220;2023-06-22T15:16:10;22.25;;;16.45;;
23410;SDS011;11878;51.774;7.220;2023-06-22T15:19:18;21.35;;;14.73;;
23410;SDS011;11878;51.774;7.220;2023-06-22T15:22:20;22.08;;;15.88;;
23410;SDS011;11878;51.774;7.220;2023-06-22T15:25:25;23.02;;;15.60;;
23410;SDS011;11878;51.774;7.220;2023-06-22T15:28:30;21.33;;;15.40;;
23410;SDS011;11878;51.774;7.220;2023-06-22T15:31:40;20.33;;;15.13;;
23410;SDS011;11878;51.774;7.220;2023-06-22T15:34:45;21.35;;;15.70;;
23410;SDS011;11878;51.774;7.220;2023-06-22T15:37:50;19.45;;;14.68;;
23410;SDS011;11878;51.774;7.220;2023-06-22T15:40:55;18.77;;;14.35;;
23410;SDS011;11878;51.774;7.220;2023-06-22T15:44:03;21.35;;;14.95;;
23410;SDS011;11878;51.774;7.220;2023-06-22T15:47:05;20.55;;;14.45;;
23410;SDS011;11878;51.774;7.220;2023-06-22T15:50:08;21.60;;;14.57;;
23410;SDS011;11878;51.774;7.220;2023-06-22T15:53:13;24.08;;;14.48;;
23410;SDS011;11878;51.774;7.220;2023-06-22T15:56:15;22.30;;;14.65;;
23410;SDS011;11878;51.774;7.220;2023-06-22T15:59:22;19.10;;;14.15;;
23410;SDS011;11878;51.774;7.220;2023-06-22T16:02:26;22.08;;;14.85;;
23410;SDS011;11878;51.774;7.220;2023-06-22T16:05:29;24.27;;;15.57;;
23410;SDS011;11878;51.774;7.220;2023-06-22T16:08:34;22.48;;;15.75;;
23410;SDS011;11878;51.774;7.220;2023-06-22T16:11:36;18.83;;;13.93;;
23410;SDS011;11878;51.774;7.220;2023-06-22T16:14:39;22.13;;;16.58;;
23410;SDS011;11878;51.774;7.220;2023-06-22T16:17:50;23.23;;;16.58;;
23410;SDS011;11878;51.774;7.220;2023-06-22T16:20:53;21.08;;;15.45;;
23410;SDS011;11878;51.774;7.220;2023-06-22T16:23:54;20.00;;;15.55;;
23410;SDS011;11878;51.774;7.220;2023-06-22T16:27:01;23.67;;;14.80;;
23410;SDS011;11878;51.774;7.220;2023-06-22T16:30:03;21.33;;;15.32;;
23410;SDS011;11878;51.774;7.220;2023-06-22T16:33:05;20.75;;;13.90;;
23410;SDS011;11878;51.774;7.220;2023-06-22T16:36:08;20.65;;;14.30;;
23410;SDS011;11878;51.774;7.220;2023-06-22T16:39:11;20.33;;;13.90;;
23410;SDS011;11878;51.774;7.220;2023-06-22T16:42:16;23.45;;;14.30;;
23410;SDS011;11878;51.774;7.220;2023-06-22T16:45:23;22.42;;;15.30;;
23410;SDS011;11878;51.774;7.220;2023-06-22T16:48:27;23.98;;;15.43;;
23410;SDS011;11878;51.774;7.220;2023-06-22T16:51:29;22.77;;;15.18;;
23410;SDS011;11878;51.774;7.220;2023-06-22T16:54:32;17.83;;;13.25;;
23410;SDS011;11878;51.774;7.220;2023-06-22T16:57:45;21.08;;;13.13;;
23410;SDS011;11878;51.774;7.220;2023-06-22T17:00:55;19.20;;;12.55;;
23410;SDS011;11878;51.774;7.220;2023-06-22T17:04:02;21.90;;;13.05;;
23410;SDS011;11878;51.774;7.220;2023-06-22T17:07:25;15.85;;;11.20;;
23410;SDS011;11878;51.774;7.220;2023-06-22T17:10:30;16.50;;;11.30;;
23410;SDS011;11878;51.774;7.220;2023-06-22T17:13:34;13.90;;;10.07;;
23410;SDS011;11878;51.774;7.220;2023-06-22T17:16:47;14.55;;;9.98;;
23410;SDS011;11878;51.774;7.220;2023-06-22T17:19:50;12.45;;;8.45;;
23410;SDS011;11878;51.774;7.220;2023-06-22T17:22:53;14.57;;;10.05;;
23410;SDS011;11878;51.774;7.220;2023-06-22T17:25:57;18.38;;;10.55;;
23410;SDS011;11878;51.774;7.220;2023-06-22T17:29:02;15.00;;;10.15;;
23410;SDS011;11878;51.774;7.220;2023-06-22T17:32:11;14.23;;;9.88;;
23410;SDS011;11878;51.774;7.220;2023-06-22T17:35:15;17.13;;;10.68;;
23410;SDS011;11878;51.774;7.220;2023-06-22T17:38:21;18.60;;;11.60;;
23410;SDS011;11878;51.774;7.220;2023-06-22T17:41:31;17.33;;;11.85;;
23410;SDS011;11878;51.774;7.220;2023-06-22T17:44:34;18.38;;;11.90;;
23410;SDS011;11878;51.774;7.220;2023-06-22T17:47:38;17.77;;;11.20;;
23410;SDS011;11878;51.774;7.220;2023-06-22T17:50:41;18.60;;;12.65;;
23410;SDS011;11878;51.774;7.220;2023-06-22T17:54:01;17.95;;;12.75;;
23410;SDS011;11878;51.774;7.220;2023-06-22T17:57:12;21.75;;;12.18;;
23410;SDS011;11878;51.774;7.220;2023-06-22T18:00:27;17.85;;;11.98;;
23410;SDS011;11878;51.774;7.220;2023-06-22T18:03:31;18.33;;;11.95;;
23410;SDS011;11878;51.774;7.220;2023-06-22T18:06:41;18.40;;;12.90;;
23410;SDS011;11878;51.774;7.220;2023-06-22T18:09:45;15.70;;;12.68;;
23410;SDS011;11878;51.774;7.220;2023-06-22T18:12:54;20.10;;;13.18;;
23410;SDS011;11878;51.774;7.220;2023-06-22T18:15:57;23.42;;;13.27;;
23410;SDS011;11878;51.774;7.220;2023-06-22T18:19:00;22.00;;;14.35;;
23410;SDS011;11878;51.774;7.220;2023-06-22T18:22:02;19.52;;;13.68;;
23410;SDS011;11878;51.774;7.220;2023-06-22T18:25:04;22.10;;;13.63;;
23410;SDS011;11878;51.774;7.220;2023-06-22T18:28:08;21.92;;;13.68;;
23410;SDS011;11878;51.774;7.220;2023-06-22T18:31:14;18.52;;;13.23;;
23410;SDS011;11878;51.774;7.220;2023-06-22T18:34:20;20.73;;;13.43;;
23410;SDS011;11878;51.774;7.220;2023-06-22T18:37:30;18.55;;;12.80;;
23410;SDS011;11878;51.774;7.220;2023-06-22T18:40:49;17.63;;;13.30;;
23410;SDS011;11878;51.774;7.220;2023-06-22T18:43:54;19.92;;;13.75;;
23410;SDS011;11878;51.774;7.220;2023-06-22T18:47:00;19.40;;;13.73;;
23410;SDS011;11878;51.774;7.220;2023-06-22T18:50:07;17.80;;;13.10;;
23410;SDS011;11878;51.774;7.220;2023-06-22T18:53:10;20.73;;;13.52;;
23410;SDS011;11878;51.774;7.220;2023-06-22T18:56:18;22.38;;;13.68;;
23410;SDS011;11878;51.774;7.220;2023-06-22T18:59:43;20.40;;;14.38;;
23410;SDS011;11878;51.774;7.220;2023-06-22T19:05:54;18.80;;;13.77;;
23410;SDS011;11878;51.774;7.220;2023-06-22T19:09:13;17.63;;;14.15;;
23410;SDS011;11878;51.774;7.220;2023-06-22T19:12:22;19.30;;;14.15;;
23410;SDS011;11878;51.774;7.220;2023-06-22T19:15:43;22.27;;;14.18;;
23410;SDS011;11878;51.774;7.220;2023-06-22T19:19:11;22.88;;;14.20;;